sensor_id;sensor_type;location;lat;lon;timestamp;P1;durP1;ratioP1;P2;durP2;ratioP2
46815;SDS011;32787;53.316;8.670;2023-02-11T00:01:07;59.58;;;27.13;;
46815;SDS011;32787;53.316;8.670;2023-02-11T00:03:35;53.08;;;25.23;;
46815;SDS011;32787;53.316;8.670;2023-02-11T00:06:02;56.17;;;26.73;;
46815;SDS011;32787;53.316;8.670;2023-02-11T00:08:30;53.10;;;26.27;;
46815;SDS011;32787;53.316;8.670;2023-02-11T00:10:56;61.70;;;26.58;;
46815;SDS011;32787;53.316;8.670;2023-02-11T00:13:22;52.28;;;25.13;;
46815;SDS011;32787;53.316;8.670;2023-02-11T00:15:49;56.00;;;24.88;;
46815;SDS011;32787;53.316;8.670;2023-02-11T00:18:14;51.55;;;24.45;;
46815;SDS011;32787;53.316;8.670;2023-02-11T00:20:41;56.28;;;25.60;;
46815;SDS011;32787;53.316;8.670;2023-02-11T00:23:07;52.13;;;24.38;;
46815;SDS011;32787;53.316;8.670;2023-02-11T00:25:33;54.42;;;25.17;;
46815;SDS011;32787;53.316;8.670;2023-02-11T00:28:02;54.33;;;23.90;;
46815;SDS011;32787;53.316;8.670;2023-02-11T00:30:28;56.25;;;24.50;;
46815;SDS011;32787;53.316;8.670;2023-02-11T00:32:53;55.67;;;22.40;;
46815;SDS011;32787;53.316;8.670;2023-02-11T00:35:19;52.67;;;23.75;;
46815;SDS011;32787;53.316;8.670;2023-02-11T00:37:45;53.08;;;23.45;;
46815;SDS011;32787;53.316;8.670;2023-02-11T00:40:10;47.83;;;23.15;;
46815;SDS011;32787;53.316;8.670;2023-02-11T00:42:36;52.90;;;22.48;;
46815;SDS011;32787;53.316;8.670;2023-02-11T00:45:02;50.42;;;22.50;;
46815;SDS011;32787;53.316;8.670;2023-02-11T00:47:28;45.83;;;22.00;;
46815;SDS011;32787;53.316;8.670;2023-02-11T00:49:53;52.97;;;21.73;;
46815;SDS011;32787;53.316;8.670;2023-02-11T00:52:19;51.50;;;20.30;;
46815;SDS011;32787;53.316;8.670;2023-02-11T00:54:45;60.63;;;21.77;;
46815;SDS011;32787;53.316;8.670;2023-02-11T00:57:10;44.75;;;22.25;;
46815;SDS011;32787;53.316;8.670;2023-02-11T00:59:36;53.88;;;22.77;;
46815;SDS011;32787;53.316;8.670;2023-02-11T01:02:01;51.08;;;22.27;;
46815;SDS011;32787;53.316;8.670;2023-02-11T01:04:27;52.97;;;21.83;;
46815;SDS011;32787;53.316;8.670;2023-02-11T01:06:53;50.28;;;21.98;;
46815;SDS011;32787;53.316;8.670;2023-02-11T01:09:18;56.38;;;22.25;;
46815;SDS011;32787;53.316;8.670;2023-02-11T01:11:45;44.45;;;19.85;;
46815;SDS011;32787;53.316;8.670;2023-02-11T01:14:11;40.78;;;20.65;;
46815;SDS011;32787;53.316;8.670;2023-02-11T01:16:37;46.47;;;21.08;;
46815;SDS011;32787;53.316;8.670;2023-02-11T01:19:03;51.67;;;21.77;;
46815;SDS011;32787;53.316;8.670;2023-02-11T01:21:28;51.88;;;21.80;;
46815;SDS011;32787;53.316;8.670;2023-02-11T01:23:54;46.53;;;19.83;;
46815;SDS011;32787;53.316;8.670;2023-02-11T01:26:19;50.63;;;20.38;;
46815;SDS011;32787;53.316;8.670;2023-02-11T01:28:45;45.33;;;19.08;;
46815;SDS011;32787;53.316;8.670;2023-02-11T01:31:11;44.22;;;19.20;;
46815;SDS011;32787;53.316;8.670;2023-02-11T01:33:37;44.72;;;19.50;;
46815;SDS011;32787;53.316;8.670;2023-02-11T01:36:03;44.63;;;19.52;;
46815;SDS011;32787;53.316;8.670;2023-02-11T01:38:30;45.00;;;18.67;;
46815;SDS011;32787;53.316;8.670;2023-02-11T01:40:57;44.78;;;19.33;;
46815;SDS011;32787;53.316;8.670;2023-02-11T01:43:26;40.28;;;18.42;;
46815;SDS011;32787;53.316;8.670;2023-02-11T01:45:59;39.67;;;18.38;;
46815;SDS011;32787;53.316;8.670;2023-02-11T01:48:32;40.35;;;18.60;;
46815;SDS011;32787;53.316;8.670;2023-02-11T01:51:03;43.00;;;17.88;;
46815;SDS011;32787;53.316;8.670;2023-02-11T01:53:51;42.45;;;19.40;;
46815;SDS011;32787;53.316;8.670;2023-02-11T01:56:37;39.67;;;17.88;;
46815;SDS011;32787;53.316;8.670;2023-02-11T01:59:32;40.60;;;17.15;;
46815;SDS011;32787;53.316;8.670;2023-02-11T02:02:05;43.47;;;18.90;;
46815;SDS011;32787;53.316;8.670;2023-02-11T02:04:35;47.08;;;17.92;;
46815;SDS011;32787;53.316;8.670;2023-02-11T02:07:10;43.78;;;18.08;;
46815;SDS011;32787;53.316;8.670;2023-02-11T02:09:43;43.20;;;18.27;;
46815;SDS011;32787;53.316;8.670;2023-02-11T02:12:13;37.10;;;17.48;;
46815;SDS011;32787;53.316;8.670;2023-02-11T02:14:39;40.92;;;18.38;;
46815;SDS011;32787;53.316;8.670;2023-02-11T02:17:06;35.28;;;16.35;;
46815;SDS011;32787;53.316;8.670;2023-02-11T02:25:09;43.88;;;17.30;;
46815;SDS011;32787;53.316;8.670;2023-02-11T02:27:54;42.35;;;16.58;;
46815;SDS011;32787;53.316;8.670;2023-02-11T02:35:46;41.30;;;16.35;;
46815;SDS011;32787;53.316;8.670;2023-02-11T02:41:32;39.22;;;15.63;;
46815;SDS011;32787;53.316;8.670;2023-02-11T02:43:59;37.38;;;15.80;;
46815;SDS011;32787;53.316;8.670;2023-02-11T02:46:29;41.15;;;15.70;;
46815;SDS011;32787;53.316;8.670;2023-02-11T02:48:57;37.10;;;15.02;;
46815;SDS011;32787;53.316;8.670;2023-02-11T02:56:43;35.00;;;14.43;;
46815;SDS011;32787;53.316;8.670;2023-02-11T03:04:55;34.47;;;14.60;;
46815;SDS011;32787;53.316;8.670;2023-02-11T03:10:31;34.83;;;15.48;;
46815;SDS011;32787;53.316;8.670;2023-02-11T03:13:01;36.78;;;15.02;;
46815;SDS011;32787;53.316;8.670;2023-02-11T03:15:29;40.03;;;15.85;;
46815;SDS011;32787;53.316;8.670;2023-02-11T03:17:58;41.58;;;14.18;;
46815;SDS011;32787;53.316;8.670;2023-02-11T03:20:25;37.47;;;15.13;;
46815;SDS011;32787;53.316;8.670;2023-02-11T03:25:30;35.88;;;14.13;;
46815;SDS011;32787;53.316;8.670;2023-02-11T03:30:55;33.35;;;14.38;;
46815;SDS011;32787;53.316;8.670;2023-02-11T03:33:45;37.53;;;14.45;;
46815;SDS011;32787;53.316;8.670;2023-02-11T03:36:23;32.33;;;14.13;;
46815;SDS011;32787;53.316;8.670;2023-02-11T03:38:55;46.92;;;14.55;;
46815;SDS011;32787;53.316;8.670;2023-02-11T03:41:22;40.20;;;14.43;;
46815;SDS011;32787;53.316;8.670;2023-02-11T03:43:50;35.17;;;13.63;;
46815;SDS011;32787;53.316;8.670;2023-02-11T03:46:18;41.40;;;13.82;;
46815;SDS011;32787;53.316;8.670;2023-02-11T03:48:48;41.45;;;14.70;;
46815;SDS011;32787;53.316;8.670;2023-02-11T03:51:19;31.48;;;13.13;;
46815;SDS011;32787;53.316;8.670;2023-02-11T03:53:47;40.15;;;13.63;;
46815;SDS011;32787;53.316;8.670;2023-02-11T03:56:17;35.93;;;14.03;;
46815;SDS011;32787;53.316;8.670;2023-02-11T03:58:46;41.70;;;13.70;;
46815;SDS011;32787;53.316;8.670;2023-02-11T04:01:12;34.17;;;13.02;;
46815;SDS011;32787;53.316;8.670;2023-02-11T04:03:39;37.50;;;13.55;;
46815;SDS011;32787;53.316;8.670;2023-02-11T04:06:04;33.00;;;13.35;;
46815;SDS011;32787;53.316;8.670;2023-02-11T04:08:30;37.47;;;14.15;;
46815;SDS011;32787;53.316;8.670;2023-02-11T04:10:57;33.58;;;14.68;;
46815;SDS011;32787;53.316;8.670;2023-02-11T04:13:24;36.97;;;15.07;;
46815;SDS011;32787;53.316;8.670;2023-02-11T04:15:49;34.78;;;14.07;;
46815;SDS011;32787;53.316;8.670;2023-02-11T04:18:15;35.42;;;14.00;;
46815;SDS011;32787;53.316;8.670;2023-02-11T04:20:41;37.05;;;14.70;;
46815;SDS011;32787;53.316;8.670;2023-02-11T04:23:06;39.65;;;15.18;;
46815;SDS011;32787;53.316;8.670;2023-02-11T04:25:32;42.00;;;14.88;;
46815;SDS011;32787;53.316;8.670;2023-02-11T04:27:57;37.00;;;13.52;;
46815;SDS011;32787;53.316;8.670;2023-02-11T04:30:23;40.00;;;14.35;;
46815;SDS011;32787;53.316;8.670;2023-02-11T04:32:49;32.03;;;14.30;;
46815;SDS011;32787;53.316;8.670;2023-02-11T04:35:14;33.58;;;14.55;;
46815;SDS011;32787;53.316;8.670;2023-02-11T04:37:40;36.55;;;15.80;;
46815;SDS011;32787;53.316;8.670;2023-02-11T04:40:06;34.45;;;14.38;;
46815;SDS011;32787;53.316;8.670;2023-02-11T04:42:32;34.80;;;14.40;;
46815;SDS011;32787;53.316;8.670;2023-02-11T04:44:57;36.65;;;13.63;;
46815;SDS011;32787;53.316;8.670;2023-02-11T04:47:23;38.70;;;13.45;;
46815;SDS011;32787;53.316;8.670;2023-02-11T04:49:49;29.60;;;14.27;;
46815;SDS011;32787;53.316;8.670;2023-02-11T04:52:14;37.75;;;15.13;;
46815;SDS011;32787;53.316;8.670;2023-02-11T04:54:40;37.92;;;14.18;;
46815;SDS011;32787;53.316;8.670;2023-02-11T04:57:05;34.22;;;14.20;;
46815;SDS011;32787;53.316;8.670;2023-02-11T04:59:31;44.90;;;15.73;;
46815;SDS011;32787;53.316;8.670;2023-02-11T05:01:57;29.75;;;14.43;;
46815;SDS011;32787;53.316;8.670;2023-02-11T05:04:22;35.88;;;15.27;;
46815;SDS011;32787;53.316;8.670;2023-02-11T05:06:48;40.58;;;15.30;;
46815;SDS011;32787;53.316;8.670;2023-02-11T05:09:14;41.88;;;14.57;;
46815;SDS011;32787;53.316;8.670;2023-02-11T05:11:40;44.80;;;14.55;;
46815;SDS011;32787;53.316;8.670;2023-02-11T05:14:06;39.97;;;14.40;;
46815;SDS011;32787;53.316;8.670;2023-02-11T05:16:32;32.15;;;14.70;;
46815;SDS011;32787;53.316;8.670;2023-02-11T05:18:58;34.85;;;15.38;;
46815;SDS011;32787;53.316;8.670;2023-02-11T05:21:24;36.95;;;15.35;;
46815;SDS011;32787;53.316;8.670;2023-02-11T05:23:49;41.25;;;15.75;;
46815;SDS011;32787;53.316;8.670;2023-02-11T05:26:15;39.60;;;16.13;;
46815;SDS011;32787;53.316;8.670;2023-02-11T05:28:42;37.08;;;14.85;;
46815;SDS011;32787;53.316;8.670;2023-02-11T05:31:08;37.03;;;16.80;;
46815;SDS011;32787;53.316;8.670;2023-02-11T05:33:35;45.17;;;16.42;;
46815;SDS011;32787;53.316;8.670;2023-02-11T05:36:02;39.45;;;16.38;;
46815;SDS011;32787;53.316;8.670;2023-02-11T05:38:32;37.40;;;15.85;;
46815;SDS011;32787;53.316;8.670;2023-02-11T05:40:58;43.00;;;17.90;;
46815;SDS011;32787;53.316;8.670;2023-02-11T05:43:24;43.17;;;18.02;;
46815;SDS011;32787;53.316;8.670;2023-02-11T05:45:51;42.38;;;15.95;;
46815;SDS011;32787;53.316;8.670;2023-02-11T05:48:16;38.92;;;17.08;;
46815;SDS011;32787;53.316;8.670;2023-02-11T05:50:42;39.00;;;17.83;;
46815;SDS011;32787;53.316;8.670;2023-02-11T05:53:08;47.78;;;19.00;;
46815;SDS011;32787;53.316;8.670;2023-02-11T05:55:33;49.35;;;19.20;;
46815;SDS011;32787;53.316;8.670;2023-02-11T05:57:59;44.60;;;17.67;;
46815;SDS011;32787;53.316;8.670;2023-02-11T06:00:25;51.00;;;18.33;;
46815;SDS011;32787;53.316;8.670;2023-02-11T06:02:51;47.80;;;19.10;;
46815;SDS011;32787;53.316;8.670;2023-02-11T06:05:16;45.03;;;18.65;;
46815;SDS011;32787;53.316;8.670;2023-02-11T06:07:42;39.95;;;17.50;;
46815;SDS011;32787;53.316;8.670;2023-02-11T06:10:08;42.30;;;18.27;;
46815;SDS011;32787;53.316;8.670;2023-02-11T06:12:34;48.10;;;19.02;;
46815;SDS011;32787;53.316;8.670;2023-02-11T06:15:01;44.75;;;19.02;;
46815;SDS011;32787;53.316;8.670;2023-02-11T06:17:26;42.53;;;18.55;;
46815;SDS011;32787;53.316;8.670;2023-02-11T06:19:55;46.53;;;19.58;;
46815;SDS011;32787;53.316;8.670;2023-02-11T06:22:21;46.10;;;19.80;;
46815;SDS011;32787;53.316;8.670;2023-02-11T06:24:46;52.28;;;19.50;;
46815;SDS011;32787;53.316;8.670;2023-02-11T06:27:12;44.50;;;19.50;;
46815;SDS011;32787;53.316;8.670;2023-02-11T06:29:38;45.03;;;19.33;;
46815;SDS011;32787;53.316;8.670;2023-02-11T06:32:03;45.35;;;18.67;;
46815;SDS011;32787;53.316;8.670;2023-02-11T06:34:29;43.22;;;19.33;;
46815;SDS011;32787;53.316;8.670;2023-02-11T06:36:54;49.38;;;20.55;;
46815;SDS011;32787;53.316;8.670;2023-02-11T06:39:20;42.20;;;18.85;;
46815;SDS011;32787;53.316;8.670;2023-02-11T06:41:46;48.35;;;19.77;;
46815;SDS011;32787;53.316;8.670;2023-02-11T06:44:11;49.95;;;19.15;;
46815;SDS011;32787;53.316;8.670;2023-02-11T06:46:37;47.95;;;19.95;;
46815;SDS011;32787;53.316;8.670;2023-02-11T06:49:02;45.97;;;18.55;;
46815;SDS011;32787;53.316;8.670;2023-02-11T06:51:28;45.95;;;18.45;;
46815;SDS011;32787;53.316;8.670;2023-02-11T06:53:54;42.13;;;19.48;;
46815;SDS011;32787;53.316;8.670;2023-02-11T06:56:20;49.00;;;20.08;;
46815;SDS011;32787;53.316;8.670;2023-02-11T06:58:46;44.08;;;20.23;;
46815;SDS011;32787;53.316;8.670;2023-02-11T07:01:14;44.08;;;20.73;;
46815;SDS011;32787;53.316;8.670;2023-02-11T07:03:41;44.30;;;18.92;;
46815;SDS011;32787;53.316;8.670;2023-02-11T07:06:10;42.58;;;19.40;;
46815;SDS011;32787;53.316;8.670;2023-02-11T07:08:38;49.28;;;19.17;;
46815;SDS011;32787;53.316;8.670;2023-02-11T07:11:13;46.15;;;19.40;;
46815;SDS011;32787;53.316;8.670;2023-02-11T07:13:45;47.65;;;19.17;;
46815;SDS011;32787;53.316;8.670;2023-02-11T07:16:12;51.58;;;20.63;;
46815;SDS011;32787;53.316;8.670;2023-02-11T07:18:40;43.78;;;20.55;;
46815;SDS011;32787;53.316;8.670;2023-02-11T07:21:06;42.50;;;19.60;;
46815;SDS011;32787;53.316;8.670;2023-02-11T07:23:35;44.10;;;19.02;;
46815;SDS011;32787;53.316;8.670;2023-02-11T07:26:05;45.15;;;19.65;;
46815;SDS011;32787;53.316;8.670;2023-02-11T07:28:33;42.35;;;19.17;;
46815;SDS011;32787;53.316;8.670;2023-02-11T07:31:04;49.00;;;19.90;;
46815;SDS011;32787;53.316;8.670;2023-02-11T07:33:31;42.92;;;18.65;;
46815;SDS011;32787;53.316;8.670;2023-02-11T07:35:59;45.15;;;18.55;;
46815;SDS011;32787;53.316;8.670;2023-02-11T07:38:24;44.28;;;18.65;;
46815;SDS011;32787;53.316;8.670;2023-02-11T07:40:50;43.10;;;18.98;;
46815;SDS011;32787;53.316;8.670;2023-02-11T07:43:16;43.17;;;18.58;;
46815;SDS011;32787;53.316;8.670;2023-02-11T07:45:41;43.88;;;20.13;;
46815;SDS011;32787;53.316;8.670;2023-02-11T07:48:07;43.42;;;18.70;;
46815;SDS011;32787;53.316;8.670;2023-02-11T07:50:33;42.15;;;20.08;;
46815;SDS011;32787;53.316;8.670;2023-02-11T07:52:58;42.08;;;19.17;;
46815;SDS011;32787;53.316;8.670;2023-02-11T07:55:24;39.95;;;19.45;;
46815;SDS011;32787;53.316;8.670;2023-02-11T07:57:49;52.20;;;19.73;;
46815;SDS011;32787;53.316;8.670;2023-02-11T08:00:15;41.92;;;18.77;;
46815;SDS011;32787;53.316;8.670;2023-02-11T08:02:41;42.75;;;20.15;;
46815;SDS011;32787;53.316;8.670;2023-02-11T08:05:07;50.03;;;19.55;;
46815;SDS011;32787;53.316;8.670;2023-02-11T08:07:33;50.47;;;20.20;;
46815;SDS011;32787;53.316;8.670;2023-02-11T08:09:58;38.15;;;18.35;;
46815;SDS011;32787;53.316;8.670;2023-02-11T08:12:24;51.13;;;20.13;;
46815;SDS011;32787;53.316;8.670;2023-02-11T08:14:50;44.83;;;20.30;;
46815;SDS011;32787;53.316;8.670;2023-02-11T08:17:15;43.15;;;20.50;;
46815;SDS011;32787;53.316;8.670;2023-02-11T08:19:41;47.15;;;19.38;;
46815;SDS011;32787;53.316;8.670;2023-02-11T08:22:07;52.80;;;20.88;;
46815;SDS011;32787;53.316;8.670;2023-02-11T08:24:32;45.10;;;20.55;;
46815;SDS011;32787;53.316;8.670;2023-02-11T08:26:58;52.58;;;20.83;;
46815;SDS011;32787;53.316;8.670;2023-02-11T08:29:23;50.67;;;21.45;;
46815;SDS011;32787;53.316;8.670;2023-02-11T08:31:49;50.47;;;21.10;;
46815;SDS011;32787;53.316;8.670;2023-02-11T08:34:15;45.45;;;20.40;;
46815;SDS011;32787;53.316;8.670;2023-02-11T08:36:43;43.08;;;20.30;;
46815;SDS011;32787;53.316;8.670;2023-02-11T08:39:13;55.72;;;21.88;;
46815;SDS011;32787;53.316;8.670;2023-02-11T08:41:44;58.38;;;22.02;;
46815;SDS011;32787;53.316;8.670;2023-02-11T08:44:10;54.38;;;21.30;;
46815;SDS011;32787;53.316;8.670;2023-02-11T08:46:36;50.97;;;21.33;;
46815;SDS011;32787;53.316;8.670;2023-02-11T08:49:02;52.53;;;20.33;;
46815;SDS011;32787;53.316;8.670;2023-02-11T08:51:28;56.28;;;21.80;;
46815;SDS011;32787;53.316;8.670;2023-02-11T08:53:57;52.40;;;21.90;;
46815;SDS011;32787;53.316;8.670;2023-02-11T08:56:24;52.38;;;21.63;;
46815;SDS011;32787;53.316;8.670;2023-02-11T08:58:50;57.05;;;21.15;;
46815;SDS011;32787;53.316;8.670;2023-02-11T09:01:18;51.92;;;21.88;;
46815;SDS011;32787;53.316;8.670;2023-02-11T09:03:46;54.38;;;22.05;;
46815;SDS011;32787;53.316;8.670;2023-02-11T09:06:12;48.50;;;20.90;;
46815;SDS011;32787;53.316;8.670;2023-02-11T09:08:39;55.42;;;21.65;;
46815;SDS011;32787;53.316;8.670;2023-02-11T09:11:07;53.40;;;22.05;;
46815;SDS011;32787;53.316;8.670;2023-02-11T09:13:34;51.03;;;21.40;;
46815;SDS011;32787;53.316;8.670;2023-02-11T09:16:00;53.78;;;21.73;;
46815;SDS011;32787;53.316;8.670;2023-02-11T09:18:27;48.10;;;22.45;;
46815;SDS011;32787;53.316;8.670;2023-02-11T09:20:53;52.22;;;21.77;;
46815;SDS011;32787;53.316;8.670;2023-02-11T09:23:29;52.00;;;21.70;;
46815;SDS011;32787;53.316;8.670;2023-02-11T09:25:58;51.85;;;21.30;;
46815;SDS011;32787;53.316;8.670;2023-02-11T09:28:50;58.88;;;21.92;;
46815;SDS011;32787;53.316;8.670;2023-02-11T09:31:19;55.33;;;22.13;;
46815;SDS011;32787;53.316;8.670;2023-02-11T09:33:47;45.47;;;21.00;;
46815;SDS011;32787;53.316;8.670;2023-02-11T09:36:16;60.10;;;22.88;;
46815;SDS011;32787;53.316;8.670;2023-02-11T09:38:46;50.40;;;21.30;;
46815;SDS011;32787;53.316;8.670;2023-02-11T09:41:18;50.30;;;21.40;;
46815;SDS011;32787;53.316;8.670;2023-02-11T09:43:55;49.60;;;22.58;;
46815;SDS011;32787;53.316;8.670;2023-02-11T09:46:23;50.95;;;20.75;;
46815;SDS011;32787;53.316;8.670;2023-02-11T09:48:52;50.80;;;20.92;;
46815;SDS011;32787;53.316;8.670;2023-02-11T09:51:41;51.70;;;21.70;;
46815;SDS011;32787;53.316;8.670;2023-02-11T09:54:28;48.28;;;21.42;;
46815;SDS011;32787;53.316;8.670;2023-02-11T09:57:18;52.42;;;20.90;;
46815;SDS011;32787;53.316;8.670;2023-02-11T09:59:43;52.92;;;21.15;;
46815;SDS011;32787;53.316;8.670;2023-02-11T10:07:56;46.45;;;20.35;;
46815;SDS011;32787;53.316;8.670;2023-02-11T10:16:17;56.00;;;22.17;;
46815;SDS011;32787;53.316;8.670;2023-02-11T10:21:18;51.70;;;20.80;;
46815;SDS011;32787;53.316;8.670;2023-02-11T10:24:00;55.03;;;24.48;;
46815;SDS011;32787;53.316;8.670;2023-02-11T10:26:30;60.13;;;21.67;;
46815;SDS011;32787;53.316;8.670;2023-02-11T10:28:58;51.10;;;20.80;;
46815;SDS011;32787;53.316;8.670;2023-02-11T10:31:39;63.08;;;22.77;;
46815;SDS011;32787;53.316;8.670;2023-02-11T10:34:12;54.90;;;22.20;;
46815;SDS011;32787;53.316;8.670;2023-02-11T10:36:42;54.40;;;23.05;;
46815;SDS011;32787;53.316;8.670;2023-02-11T10:39:10;54.45;;;22.20;;
46815;SDS011;32787;53.316;8.670;2023-02-11T10:41:57;54.75;;;22.85;;
46815;SDS011;32787;53.316;8.670;2023-02-11T10:44:32;59.78;;;22.17;;
46815;SDS011;32787;53.316;8.670;2023-02-11T10:47:04;58.33;;;22.48;;
46815;SDS011;32787;53.316;8.670;2023-02-11T10:49:38;48.97;;;21.90;;
46815;SDS011;32787;53.316;8.670;2023-02-11T10:54:37;58.22;;;22.10;;
46815;SDS011;32787;53.316;8.670;2023-02-11T10:57:03;58.33;;;21.50;;
46815;SDS011;32787;53.316;8.670;2023-02-11T10:59:32;57.15;;;21.88;;
46815;SDS011;32787;53.316;8.670;2023-02-11T11:02:04;51.60;;;21.40;;
46815;SDS011;32787;53.316;8.670;2023-02-11T11:04:56;56.55;;;21.05;;
46815;SDS011;32787;53.316;8.670;2023-02-11T11:07:25;50.72;;;21.52;;
46815;SDS011;32787;53.316;8.670;2023-02-11T11:14:55;51.30;;;19.70;;
46815;SDS011;32787;53.316;8.670;2023-02-11T11:17:43;52.55;;;21.25;;
46815;SDS011;32787;53.316;8.670;2023-02-11T11:20:13;55.30;;;22.05;;
46815;SDS011;32787;53.316;8.670;2023-02-11T11:22:40;53.40;;;20.83;;
46815;SDS011;32787;53.316;8.670;2023-02-11T11:25:19;47.47;;;21.42;;
46815;SDS011;32787;53.316;8.670;2023-02-11T11:27:49;45.50;;;19.70;;
46815;SDS011;32787;53.316;8.670;2023-02-11T11:30:16;56.38;;;20.65;;
46815;SDS011;32787;53.316;8.670;2023-02-11T11:32:43;51.97;;;19.63;;
46815;SDS011;32787;53.316;8.670;2023-02-11T11:38:10;52.50;;;19.45;;
46815;SDS011;32787;53.316;8.670;2023-02-11T11:40:39;45.88;;;18.60;;
46815;SDS011;32787;53.316;8.670;2023-02-11T11:43:14;49.28;;;20.02;;
46815;SDS011;32787;53.316;8.670;2023-02-11T11:45:56;59.25;;;21.15;;
46815;SDS011;32787;53.316;8.670;2023-02-11T11:48:36;56.40;;;22.48;;
46815;SDS011;32787;53.316;8.670;2023-02-11T11:51:07;44.20;;;19.48;;
46815;SDS011;32787;53.316;8.670;2023-02-11T11:56:17;48.65;;;18.85;;
46815;SDS011;32787;53.316;8.670;2023-02-11T11:58:46;54.55;;;19.23;;
46815;SDS011;32787;53.316;8.670;2023-02-11T12:12:03;44.15;;;18.90;;
46815;SDS011;32787;53.316;8.670;2023-02-11T12:14:52;50.20;;;18.63;;
46815;SDS011;32787;53.316;8.670;2023-02-11T12:17:51;41.50;;;18.15;;
46815;SDS011;32787;53.316;8.670;2023-02-11T12:20:37;45.83;;;17.42;;
46815;SDS011;32787;53.316;8.670;2023-02-11T12:23:31;43.53;;;16.80;;
46815;SDS011;32787;53.316;8.670;2023-02-11T12:26:06;44.15;;;18.17;;
46815;SDS011;32787;53.316;8.670;2023-02-11T12:32:00;46.78;;;16.08;;
46815;SDS011;32787;53.316;8.670;2023-02-11T12:34:53;39.05;;;16.25;;
46815;SDS011;32787;53.316;8.670;2023-02-11T12:45:56;44.00;;;15.20;;
46815;SDS011;32787;53.316;8.670;2023-02-11T13:02:13;38.45;;;12.20;;
46815;SDS011;32787;53.316;8.670;2023-02-11T13:04:53;38.20;;;12.23;;
46815;SDS011;32787;53.316;8.670;2023-02-11T13:07:26;36.45;;;11.30;;
46815;SDS011;32787;53.316;8.670;2023-02-11T13:10:00;39.33;;;11.77;;
46815;SDS011;32787;53.316;8.670;2023-02-11T13:12:38;41.90;;;11.68;;
46815;SDS011;32787;53.316;8.670;2023-02-11T13:15:28;37.13;;;11.35;;
46815;SDS011;32787;53.316;8.670;2023-02-11T13:20:57;36.05;;;11.73;;
46815;SDS011;32787;53.316;8.670;2023-02-11T13:26:32;36.65;;;11.38;;
46815;SDS011;32787;53.316;8.670;2023-02-11T13:29:13;37.38;;;10.07;;
46815;SDS011;32787;53.316;8.670;2023-02-11T13:32:04;28.58;;;9.18;;
46815;SDS011;32787;53.316;8.670;2023-02-11T13:37:26;41.03;;;10.13;;
46815;SDS011;32787;53.316;8.670;2023-02-11T13:42:28;40.60;;;11.05;;
46815;SDS011;32787;53.316;8.670;2023-02-11T13:44:56;38.47;;;9.57;;
46815;SDS011;32787;53.316;8.670;2023-02-11T13:47:31;31.58;;;9.75;;
46815;SDS011;32787;53.316;8.670;2023-02-11T13:49:59;30.67;;;10.57;;
46815;SDS011;32787;53.316;8.670;2023-02-11T13:52:28;36.75;;;10.57;;
46815;SDS011;32787;53.316;8.670;2023-02-11T13:54:57;42.25;;;11.32;;
46815;SDS011;32787;53.316;8.670;2023-02-11T13:57:32;46.65;;;10.65;;
46815;SDS011;32787;53.316;8.670;2023-02-11T14:00:46;34.25;;;10.88;;
46815;SDS011;32787;53.316;8.670;2023-02-11T14:03:43;38.20;;;10.25;;
46815;SDS011;32787;53.316;8.670;2023-02-11T14:06:23;41.40;;;9.98;;
46815;SDS011;32787;53.316;8.670;2023-02-11T14:14:21;31.23;;;9.73;;
46815;SDS011;32787;53.316;8.670;2023-02-11T14:19:30;43.28;;;10.15;;
46815;SDS011;32787;53.316;8.670;2023-02-11T14:22:04;40.55;;;10.32;;
46815;SDS011;32787;53.316;8.670;2023-02-11T14:27:16;37.63;;;9.48;;
46815;SDS011;32787;53.316;8.670;2023-02-11T14:41:30;32.17;;;9.50;;
46815;SDS011;32787;53.316;8.670;2023-02-11T14:44:00;35.08;;;9.07;;
46815;SDS011;32787;53.316;8.670;2023-02-11T14:46:30;38.55;;;10.27;;
46815;SDS011;32787;53.316;8.670;2023-02-11T14:48:58;37.35;;;9.77;;
46815;SDS011;32787;53.316;8.670;2023-02-11T14:51:35;41.55;;;9.95;;
46815;SDS011;32787;53.316;8.670;2023-02-11T14:54:11;29.50;;;9.20;;
46815;SDS011;32787;53.316;8.670;2023-02-11T14:56:41;47.70;;;9.77;;
46815;SDS011;32787;53.316;8.670;2023-02-11T14:59:15;44.33;;;9.60;;
46815;SDS011;32787;53.316;8.670;2023-02-11T15:01:44;42.15;;;10.40;;
46815;SDS011;32787;53.316;8.670;2023-02-11T15:04:31;43.83;;;10.23;;
46815;SDS011;32787;53.316;8.670;2023-02-11T15:07:04;43.55;;;9.68;;
46815;SDS011;32787;53.316;8.670;2023-02-11T15:12:19;35.35;;;8.95;;
46815;SDS011;32787;53.316;8.670;2023-02-11T15:14:52;31.35;;;9.20;;
46815;SDS011;32787;53.316;8.670;2023-02-11T15:17:24;35.63;;;9.38;;
46815;SDS011;32787;53.316;8.670;2023-02-11T15:19:54;40.25;;;8.68;;
46815;SDS011;32787;53.316;8.670;2023-02-11T15:22:27;37.67;;;9.02;;
46815;SDS011;32787;53.316;8.670;2023-02-11T15:28:14;39.97;;;10.43;;
46815;SDS011;32787;53.316;8.670;2023-02-11T15:32:51;24.92;;;8.35;;
46815;SDS011;32787;53.316;8.670;2023-02-11T15:35:31;33.40;;;8.48;;
46815;SDS011;32787;53.316;8.670;2023-02-11T15:37:58;36.28;;;9.98;;
46815;SDS011;32787;53.316;8.670;2023-02-11T15:40:25;31.90;;;10.10;;
46815;SDS011;32787;53.316;8.670;2023-02-11T15:47:48;37.13;;;9.85;;
46815;SDS011;32787;53.316;8.670;2023-02-11T15:50:24;42.88;;;9.27;;
46815;SDS011;32787;53.316;8.670;2023-02-11T15:52:54;40.90;;;10.63;;
46815;SDS011;32787;53.316;8.670;2023-02-11T15:55:22;42.45;;;10.40;;
46815;SDS011;32787;53.316;8.670;2023-02-11T15:57:53;27.52;;;9.60;;
46815;SDS011;32787;53.316;8.670;2023-02-11T16:00:24;38.45;;;11.68;;
46815;SDS011;32787;53.316;8.670;2023-02-11T16:02:57;36.50;;;10.02;;
46815;SDS011;32787;53.316;8.670;2023-02-11T16:05:25;35.10;;;10.45;;
46815;SDS011;32787;53.316;8.670;2023-02-11T16:07:59;36.17;;;11.45;;
46815;SDS011;32787;53.316;8.670;2023-02-11T16:10:36;31.55;;;11.30;;
46815;SDS011;32787;53.316;8.670;2023-02-11T16:18:17;36.42;;;10.23;;
46815;SDS011;32787;53.316;8.670;2023-02-11T16:20:58;27.05;;;9.65;;
46815;SDS011;32787;53.316;8.670;2023-02-11T16:23:26;34.75;;;8.77;;
46815;SDS011;32787;53.316;8.670;2023-02-11T16:26:00;34.65;;;8.50;;
46815;SDS011;32787;53.316;8.670;2023-02-11T16:28:35;25.83;;;8.60;;
46815;SDS011;32787;53.316;8.670;2023-02-11T16:31:01;24.90;;;8.63;;
46815;SDS011;32787;53.316;8.670;2023-02-11T16:33:27;28.17;;;8.80;;
46815;SDS011;32787;53.316;8.670;2023-02-11T16:35:53;27.35;;;9.18;;
46815;SDS011;32787;53.316;8.670;2023-02-11T16:38:19;34.58;;;8.50;;
46815;SDS011;32787;53.316;8.670;2023-02-11T16:40:45;40.08;;;9.60;;
46815;SDS011;32787;53.316;8.670;2023-02-11T16:43:13;38.15;;;8.27;;
46815;SDS011;32787;53.316;8.670;2023-02-11T16:45:39;29.02;;;10.07;;
46815;SDS011;32787;53.316;8.670;2023-02-11T16:48:05;29.95;;;8.60;;
46815;SDS011;32787;53.316;8.670;2023-02-11T16:50:32;36.33;;;9.63;;
46815;SDS011;32787;53.316;8.670;2023-02-11T16:52:58;35.85;;;9.10;;
46815;SDS011;32787;53.316;8.670;2023-02-11T16:55:26;35.50;;;9.10;;
46815;SDS011;32787;53.316;8.670;2023-02-11T16:57:52;33.72;;;10.45;;
46815;SDS011;32787;53.316;8.670;2023-02-11T17:00:18;32.70;;;11.25;;
46815;SDS011;32787;53.316;8.670;2023-02-11T17:02:44;33.80;;;10.52;;
46815;SDS011;32787;53.316;8.670;2023-02-11T17:05:16;35.58;;;10.68;;
46815;SDS011;32787;53.316;8.670;2023-02-11T17:07:44;39.80;;;11.80;;